createdAt,value
2024-04-25T00:01:36.582Z,53.90
2024-04-25T00:04:03.982Z,54.00
2024-04-25T00:06:30.911Z,54.20
2024-04-25T00:08:57.739Z,54.20
2024-04-25T00:11:25.654Z,54.10
2024-04-25T00:13:52.653Z,54.40
2024-04-25T00:31:06.348Z,54.40
2024-04-25T00:33:33.342Z,54.90
2024-04-25T00:36:00.272Z,55.30
2024-04-25T00:38:27.207Z,55.30
2024-04-25T00:40:54.065Z,55.50
2024-04-25T00:43:33.922Z,55.40
2024-04-25T00:46:01.099Z,55.70
2024-04-25T00:48:32.896Z,55.90
2024-04-25T00:51:02.793Z,56.00
2024-04-25T00:53:30.847Z,55.90
2024-04-25T00:55:58.923Z,55.80
2024-04-25T00:58:27.436Z,56.20
2024-04-25T01:00:57.391Z,56.60
2024-04-25T01:03:25.123Z,56.70
2024-04-25T01:05:54.269Z,57.10
2024-04-25T01:08:21.139Z,57.60
2024-04-25T01:10:48.045Z,57.50
2024-04-25T01:13:14.954Z,57.90
2024-04-25T01:15:41.866Z,56.70
2024-04-25T01:18:08.897Z,56.40
2024-04-25T01:20:38.784Z,56.40
2024-04-25T01:23:10.095Z,56.20
2024-04-25T01:25:38.811Z,56.10
2024-04-25T01:28:06.542Z,56.00
2024-04-25T01:30:35.292Z,55.90
2024-04-25T01:33:03.133Z,55.70
2024-04-25T01:35:32.883Z,55.70
2024-04-25T01:38:01.121Z,55.50
2024-04-25T01:40:28.101Z,55.40
2024-04-25T01:42:54.916Z,55.40
2024-04-25T01:45:21.786Z,55.40
2024-04-25T01:47:50.088Z,55.40
2024-04-25T01:50:17.142Z,55.40
2024-04-25T01:52:44.088Z,55.50
2024-04-25T01:55:11.007Z,55.40
2024-04-25T01:57:37.852Z,55.50
2024-04-25T02:00:05.365Z,55.40
2024-04-25T02:02:32.316Z,55.20
2024-04-25T02:04:59.171Z,55.50
2024-04-25T02:07:26.106Z,55.50
2024-04-25T02:09:53.167Z,55.50
2024-04-25T02:12:20.022Z,55.50
2024-04-25T02:14:46.919Z,55.30
2024-04-25T02:17:15.133Z,55.30
2024-04-25T02:19:42.081Z,55.10
2024-04-25T02:22:28.470Z,54.90
2024-04-25T02:27:34.772Z,54.60
2024-04-25T02:30:01.607Z,55.30
2024-04-25T02:32:28.550Z,55.50
2024-04-25T02:34:55.507Z,55.90
2024-04-25T02:37:22.356Z,56.90
2024-04-25T02:39:49.234Z,57.80
2024-04-25T02:42:16.168Z,56.90
2024-04-25T02:44:43.041Z,56.30
2024-04-25T02:47:09.986Z,56.70
2024-04-25T02:49:36.844Z,57.00
2024-04-25T02:52:03.885Z,56.20
2024-04-25T02:54:30.703Z,55.80
2024-04-25T02:56:57.776Z,55.60
2024-04-25T02:59:24.595Z,55.60
2024-04-25T03:01:51.545Z,55.70
2024-04-25T03:04:18.408Z,55.90
2024-04-25T03:06:45.467Z,56.00
2024-04-25T03:09:12.506Z,55.90
2024-04-25T03:11:39.646Z,55.90
2024-04-25T03:14:06.706Z,56.00
2024-04-25T03:16:34.255Z,56.20
2024-04-25T03:19:01.159Z,56.20
2024-04-25T03:21:28.128Z,56.30
2024-04-25T03:23:54.925Z,56.20
2024-04-25T03:26:21.854Z,55.90
2024-04-25T03:28:48.727Z,55.90
2024-04-25T03:31:17.473Z,56.00
2024-04-25T03:33:46.058Z,56.10
2024-04-25T03:36:13.002Z,56.20
2024-04-25T03:38:40.017Z,56.10
2024-04-25T03:41:06.996Z,55.70
2024-04-25T03:43:33.870Z,55.40
2024-04-25T03:46:01.423Z,55.20
2024-04-25T03:48:28.498Z,55.00
2024-04-25T03:50:55.468Z,55.00
2024-04-25T03:53:23.379Z,55.20
2024-04-25T03:55:50.314Z,55.50
2024-04-25T03:58:18.253Z,55.60
2024-04-25T04:00:45.274Z,55.80
2024-04-25T04:03:13.650Z,56.10
2024-04-25T04:05:41.560Z,56.50
2024-04-25T04:08:09.095Z,56.90
2024-04-25T04:10:35.961Z,57.70
2024-04-25T04:13:04.083Z,56.80
2024-04-25T04:15:30.935Z,56.20
2024-04-25T04:17:57.882Z,55.40
2024-04-25T04:20:24.763Z,55.30
2024-04-25T04:22:51.751Z,55.20
2024-04-25T04:25:18.638Z,55.40
2024-04-25T04:27:45.480Z,55.60
2024-04-25T04:30:12.465Z,55.90
2024-04-25T04:32:39.505Z,55.90
2024-04-25T04:35:08.059Z,55.70
2024-04-25T04:37:35.017Z,56.10
2024-04-25T04:40:01.849Z,56.30
2024-04-25T04:42:28.689Z,56.30
2024-04-25T04:44:55.460Z,55.80
2024-04-25T04:47:22.491Z,55.50
2024-04-25T04:49:49.327Z,55.70
2024-04-25T04:52:16.291Z,56.20
2024-04-25T04:54:43.125Z,56.10
2024-04-25T04:57:09.943Z,56.20
2024-04-25T04:59:36.962Z,56.30
2024-04-25T05:02:04.069Z,56.40
2024-04-25T05:04:31.882Z,56.30
2024-04-25T05:06:58.825Z,56.20
2024-04-25T05:09:25.697Z,56.40
2024-04-25T05:11:52.654Z,56.60
2024-04-25T05:14:19.630Z,56.60
2024-04-25T05:16:47.162Z,56.70
2024-04-25T05:19:14.012Z,56.70
2024-04-25T05:21:40.830Z,56.80
2024-04-25T05:24:07.760Z,56.80
2024-04-25T05:26:34.598Z,56.90
2024-04-25T05:29:02.855Z,57.00
2024-04-25T05:31:29.689Z,57.00
2024-04-25T05:33:56.702Z,57.00
2024-04-25T05:36:23.526Z,57.10
2024-04-25T05:38:50.518Z,57.30
2024-04-25T05:41:17.686Z,57.30
2024-04-25T05:43:44.571Z,57.50
2024-04-25T05:46:11.465Z,57.80
2024-04-25T05:48:39.206Z,57.80
2024-04-25T05:51:06.136Z,58.00
2024-04-25T05:53:33.137Z,58.10
2024-04-25T05:56:00.080Z,58.40
2024-04-25T05:58:26.911Z,58.70
2024-04-25T06:00:54.137Z,58.70
2024-04-25T06:03:21.000Z,59.20
2024-04-25T06:05:47.966Z,59.90
2024-04-25T06:08:14.884Z,60.00
2024-04-25T06:10:41.957Z,59.90
2024-04-25T06:13:09.094Z,58.40
2024-04-25T06:15:36.038Z,57.30
2024-04-25T06:18:05.592Z,57.00
2024-04-25T06:20:32.598Z,57.10
2024-04-25T06:22:59.596Z,57.30
2024-04-25T06:25:27.500Z,57.70
2024-04-25T06:27:55.437Z,58.00
2024-04-25T06:30:23.408Z,59.00
2024-04-25T06:32:50.450Z,58.70
2024-04-25T06:35:17.460Z,59.30
2024-04-25T06:37:44.462Z,59.90
2024-04-25T06:40:11.476Z,60.60
2024-04-25T06:42:38.394Z,60.80
2024-04-25T06:45:05.972Z,61.00
2024-04-25T06:47:33.101Z,61.10
2024-04-25T06:50:01.127Z,61.50
2024-04-25T06:52:28.040Z,61.60
2024-04-25T06:54:55.018Z,61.50
2024-04-25T06:57:21.861Z,61.50
2024-04-25T06:59:51.584Z,61.40
2024-04-25T07:02:20.957Z,61.30
2024-04-25T07:04:48.080Z,61.30
2024-04-25T07:07:16.002Z,61.30
2024-04-25T07:09:42.879Z,61.20
2024-04-25T07:12:09.874Z,61.00
2024-04-25T07:14:38.967Z,61.00
2024-04-25T07:17:06.056Z,61.40
2024-04-25T07:19:32.997Z,61.60
2024-04-25T07:22:00.580Z,61.80
2024-04-25T07:24:29.420Z,61.40
2024-04-25T07:26:59.205Z,61.30
2024-04-25T07:29:26.124Z,61.00
2024-04-25T07:31:53.760Z,61.10
2024-04-25T07:34:20.608Z,61.10
2024-04-25T07:36:47.463Z,61.50
2024-04-25T07:39:17.217Z,61.60
2024-04-25T07:41:45.972Z,61.80
2024-04-25T07:44:14.033Z,62.00
2024-04-25T07:46:41.248Z,62.40
2024-04-25T07:49:09.025Z,62.00
2024-04-25T07:51:36.375Z,62.20
2024-04-25T07:54:03.466Z,62.10
2024-04-25T07:56:30.309Z,61.90
2024-04-25T07:58:57.397Z,61.20
2024-04-25T08:01:24.270Z,61.10
2024-04-25T08:03:52.233Z,60.90
2024-04-25T08:06:20.132Z,61.20
2024-04-25T08:08:47.021Z,61.30
2024-04-25T08:11:14.125Z,60.80
2024-04-25T08:13:41.037Z,60.30
2024-04-25T08:16:09.079Z,60.30
2024-04-25T08:18:35.991Z,59.90
2024-04-25T08:21:03.241Z,59.10
2024-04-25T08:23:30.130Z,59.30
2024-04-25T08:25:57.218Z,59.70
2024-04-25T08:28:24.032Z,59.20
2024-04-25T08:30:50.900Z,59.40
2024-04-25T08:33:17.929Z,59.60
2024-04-25T08:35:45.005Z,59.80
2024-04-25T08:38:11.955Z,60.10
2024-04-25T08:40:39.032Z,59.60
2024-04-25T08:43:06.100Z,58.80
2024-04-25T08:45:34.161Z,58.40
2024-04-25T08:48:02.500Z,57.60
2024-04-25T08:50:30.351Z,57.70
2024-04-25T08:52:59.941Z,57.90
2024-04-25T08:55:26.974Z,57.80
2024-04-25T08:57:54.169Z,57.70
2024-04-25T09:00:21.039Z,56.40
2024-04-25T09:02:51.196Z,56.10
2024-04-25T09:05:21.442Z,55.20
2024-04-25T09:07:48.650Z,55.70
2024-04-25T09:10:15.658Z,56.10
2024-04-25T09:12:42.549Z,56.50
2024-04-25T09:15:09.528Z,56.40
2024-04-25T09:17:39.284Z,56.30
2024-04-25T09:20:07.496Z,56.30
2024-04-25T09:22:34.431Z,56.60
2024-04-25T09:25:01.726Z,56.60
2024-04-25T09:27:28.646Z,56.80
2024-04-25T09:29:55.895Z,57.10
2024-04-25T09:32:23.856Z,56.60
2024-04-25T09:34:50.914Z,57.20
2024-04-25T09:37:18.264Z,56.80
2024-04-25T09:39:51.679Z,57.00
2024-04-25T09:42:26.620Z,57.80
2024-04-25T09:44:55.654Z,57.60
2024-04-25T09:47:33.741Z,58.00
2024-04-25T09:50:12.391Z,58.70
2024-04-25T09:52:42.672Z,59.20
2024-04-25T09:55:15.099Z,59.00
2024-04-25T09:57:45.772Z,59.50
2024-04-25T10:00:15.186Z,59.50
2024-04-25T10:02:43.823Z,59.20
2024-04-25T10:05:11.784Z,59.30
2024-04-25T10:07:39.576Z,59.30
2024-04-25T10:10:07.747Z,59.10
2024-04-25T10:12:34.602Z,58.90
2024-04-25T10:15:04.437Z,58.40
2024-04-25T10:17:34.827Z,58.30
2024-04-25T10:20:04.879Z,58.10
2024-04-25T10:22:33.862Z,58.40
2024-04-25T10:25:02.452Z,58.20
2024-04-25T10:27:31.062Z,58.00
2024-04-25T10:30:08.313Z,58.30
2024-04-25T10:32:35.645Z,58.70
2024-04-25T10:35:02.875Z,59.10
2024-04-25T10:37:32.110Z,59.40
2024-04-25T10:40:00.607Z,60.00
2024-04-25T10:42:27.493Z,59.60
2024-04-25T10:44:57.464Z,59.70
2024-04-25T10:47:24.497Z,60.10
2024-04-25T10:49:51.461Z,60.50
2024-04-25T10:52:18.563Z,61.30
2024-04-25T10:54:45.493Z,61.60
2024-04-25T10:57:15.786Z,61.30
2024-04-25T10:59:43.948Z,60.40
2024-04-25T11:02:11.019Z,60.90
2024-04-25T11:04:39.499Z,61.30
2024-04-25T11:07:08.140Z,60.40
2024-04-25T11:09:36.101Z,60.40
2024-04-25T11:12:03.004Z,60.40
2024-04-25T11:14:30.246Z,60.10
2024-04-25T11:16:57.127Z,60.50
2024-04-25T11:19:27.156Z,60.70
2024-04-25T11:21:54.880Z,60.90
2024-04-25T11:24:23.528Z,59.80
2024-04-25T11:26:54.492Z,59.10
2024-04-25T11:29:22.411Z,58.80
2024-04-25T11:31:49.447Z,58.80
2024-04-25T11:34:21.489Z,59.30
2024-04-25T11:37:02.176Z,59.40
2024-04-25T11:39:31.408Z,59.70
2024-04-25T11:42:07.855Z,59.20
2024-04-25T11:44:35.424Z,58.00
2024-04-25T11:47:06.368Z,58.40
2024-04-25T11:49:34.230Z,58.50
2024-04-25T11:52:01.263Z,59.00
2024-04-25T11:54:28.192Z,59.00
2024-04-25T11:56:56.052Z,58.50
2024-04-25T11:59:23.091Z,57.60
2024-04-25T12:01:53.731Z,56.50
2024-04-25T12:04:21.662Z,55.40
2024-04-25T12:06:50.804Z,57.40
2024-04-25T12:09:17.837Z,56.70
2024-04-25T12:11:49.547Z,56.70
2024-04-25T12:14:18.901Z,57.30
2024-04-25T12:19:14.658Z,56.40
2024-04-25T12:21:43.564Z,52.20
2024-04-25T12:24:10.459Z,53.40
2024-04-25T12:26:37.384Z,52.90
2024-04-25T12:29:04.356Z,53.10
2024-04-25T12:31:31.278Z,52.00
2024-04-25T12:34:00.500Z,51.50
2024-04-25T12:36:27.509Z,49.70
2024-04-25T12:38:54.398Z,50.20
2024-04-25T12:41:21.346Z,50.20
2024-04-25T12:43:49.696Z,51.10
2024-04-25T12:46:17.620Z,53.40
2024-04-25T12:48:44.865Z,51.40
2024-04-25T12:51:12.842Z,48.50
2024-04-25T12:53:41.657Z,47.30
2024-04-25T12:56:08.966Z,48.80
2024-04-25T12:58:41.611Z,48.30
2024-04-25T13:01:09.302Z,48.80
2024-04-25T13:03:36.189Z,47.40
2024-04-25T13:06:04.401Z,48.30
2024-04-25T13:08:31.318Z,47.50
2024-04-25T13:10:58.161Z,44.50
2024-04-25T13:13:27.950Z,45.60
2024-04-25T13:15:55.053Z,46.40
2024-04-25T13:18:24.889Z,46.90
2024-04-25T13:20:51.926Z,47.90
2024-04-25T13:23:19.114Z,46.10
2024-04-25T13:25:46.054Z,45.00
2024-04-25T13:28:13.927Z,44.10
2024-04-25T13:30:40.770Z,45.90
2024-04-25T13:33:09.430Z,45.70
2024-04-25T13:35:36.566Z,44.70
2024-04-25T13:38:03.513Z,45.20
2024-04-25T13:40:30.513Z,44.50
2024-04-25T13:42:57.461Z,43.60
2024-04-25T13:45:25.342Z,43.00
2024-04-25T13:47:52.304Z,44.20
2024-04-25T13:50:19.411Z,43.30
2024-04-25T13:52:47.279Z,43.90
2024-04-25T13:55:14.278Z,44.90
2024-04-25T13:57:42.424Z,44.40
2024-04-25T14:00:10.105Z,44.50
2024-04-25T14:02:37.117Z,45.10
2024-04-25T14:05:04.296Z,46.10
2024-04-25T14:07:31.101Z,44.70
2024-04-25T14:09:58.037Z,44.70
2024-04-25T14:12:29.119Z,44.20
2024-04-25T14:14:56.571Z,45.30
2024-04-25T14:17:23.602Z,44.90
2024-04-25T14:19:50.505Z,45.70
2024-04-25T14:22:17.392Z,45.90
2024-04-25T14:24:47.003Z,46.30
2024-04-25T14:27:32.767Z,46.30
2024-04-25T14:29:59.655Z,46.20
2024-04-25T14:32:27.050Z,46.30
2024-04-25T14:34:56.693Z,45.50
2024-04-25T14:37:24.783Z,45.50
2024-04-25T14:39:52.116Z,46.70
2024-04-25T14:42:19.493Z,46.00
2024-04-25T14:44:47.479Z,47.00
2024-04-25T14:47:14.620Z,46.10
2024-04-25T14:49:41.536Z,46.10
2024-04-25T14:52:08.371Z,45.50
2024-04-25T14:54:35.237Z,45.20
2024-04-25T14:57:02.268Z,46.10
2024-04-25T14:59:29.332Z,47.70
2024-04-25T15:01:56.229Z,47.00
2024-04-25T15:04:23.185Z,47.30
2024-04-25T15:06:50.125Z,46.90
2024-04-25T15:09:16.986Z,46.50
2024-04-25T15:12:00.000Z,46.40
2024-04-25T15:14:26.949Z,45.50
2024-04-25T15:16:53.844Z,44.90
2024-04-25T15:19:20.706Z,45.20
2024-04-25T15:21:47.610Z,45.40
2024-04-25T15:24:15.497Z,47.30
2024-04-25T15:26:43.390Z,46.50
2024-04-25T15:29:10.425Z,48.20
2024-04-25T15:31:37.540Z,47.60
2024-04-25T15:34:04.624Z,48.20
2024-04-25T15:36:31.698Z,48.30
2024-04-25T15:38:58.762Z,48.80
2024-04-25T15:41:25.684Z,49.40
2024-04-25T15:43:53.619Z,49.90
2024-04-25T15:46:20.520Z,50.30
2024-04-25T15:48:47.730Z,49.70
2024-04-25T15:51:15.746Z,49.40
2024-04-25T15:53:42.672Z,50.40
2024-04-25T15:56:10.160Z,51.10
2024-04-25T15:58:37.027Z,51.00
2024-04-25T16:01:04.041Z,51.30
2024-04-25T16:03:32.090Z,50.50
2024-04-25T16:05:59.020Z,50.50
2024-04-25T16:08:28.010Z,51.50
2024-04-25T16:10:55.009Z,51.70
2024-04-25T16:13:21.948Z,52.70
2024-04-25T16:15:49.245Z,51.70
2024-04-25T16:18:16.408Z,52.80
2024-04-25T16:20:43.716Z,52.70
2024-04-25T16:23:10.664Z,53.60
2024-04-25T16:25:37.697Z,54.70
2024-04-25T16:28:04.746Z,55.70
2024-04-25T16:30:31.920Z,57.50
2024-04-25T16:32:58.931Z,57.60
2024-04-25T16:35:25.923Z,58.30
2024-04-25T16:37:53.396Z,58.90
2024-04-25T16:40:20.227Z,59.00
2024-04-25T16:42:48.302Z,60.00
2024-04-25T16:45:16.234Z,60.00
2024-04-25T16:47:43.285Z,60.00
2024-04-25T16:50:10.997Z,60.10
2024-04-25T16:52:37.964Z,60.60
2024-04-25T16:55:05.082Z,60.50
2024-04-25T16:57:32.862Z,60.20
2024-04-25T16:59:59.651Z,59.70
2024-04-25T17:02:26.644Z,60.30
2024-04-25T17:04:54.168Z,60.00
2024-04-25T17:07:21.068Z,60.00
2024-04-25T17:09:47.973Z,59.70
2024-04-25T17:12:17.778Z,59.60
2024-04-25T17:14:44.643Z,59.60
2024-04-25T17:17:11.748Z,60.00
2024-04-25T17:19:38.662Z,60.00
2024-04-25T17:22:09.996Z,59.80
2024-04-25T17:24:45.759Z,59.40
2024-04-25T17:27:12.658Z,59.80
2024-04-25T17:29:42.339Z,59.80
2024-04-25T17:32:11.906Z,59.50
2024-04-25T17:34:39.511Z,59.10
2024-04-25T17:37:07.164Z,59.10
2024-04-25T17:39:34.259Z,59.10
2024-04-25T17:42:01.557Z,59.20
2024-04-25T17:44:28.506Z,59.20
2024-04-25T17:46:57.838Z,59.50
2024-04-25T17:49:24.930Z,59.50
2024-04-25T17:51:51.874Z,59.70
2024-04-25T17:54:18.741Z,59.50
2024-04-25T17:56:46.108Z,59.90
2024-04-25T17:59:13.038Z,59.90
2024-04-25T18:01:41.360Z,60.00
2024-04-25T18:06:36.078Z,60.00
2024-04-25T18:09:04.021Z,59.40
2024-04-25T18:11:30.976Z,59.70
2024-04-25T18:13:58.596Z,59.70
2024-04-25T18:16:25.466Z,59.70
2024-04-25T18:18:52.423Z,59.80
2024-04-25T18:21:19.317Z,59.80
2024-04-25T18:23:46.469Z,59.80
2024-04-25T18:26:13.458Z,59.70
2024-04-25T18:28:40.252Z,60.00
2024-04-25T18:31:07.107Z,60.30
2024-04-25T18:33:34.104Z,60.10
2024-04-25T18:36:01.115Z,60.20
2024-04-25T18:38:28.064Z,60.10
2024-04-25T18:40:54.995Z,60.30
2024-04-25T18:43:21.896Z,60.10
2024-04-25T18:45:49.184Z,60.20
2024-04-25T18:48:17.672Z,60.30
2024-04-25T18:50:45.076Z,60.40
2024-04-25T18:53:11.990Z,60.30
2024-04-25T18:55:38.811Z,59.40
2024-04-25T18:58:05.591Z,59.40
2024-04-25T19:00:32.477Z,59.30
2024-04-25T19:03:01.722Z,59.20
2024-04-25T19:05:28.895Z,58.90
2024-04-25T19:07:56.859Z,59.50
2024-04-25T19:10:24.963Z,59.60
2024-04-25T19:12:51.953Z,59.80
2024-04-25T19:15:21.428Z,60.20
2024-04-25T19:17:48.664Z,60.30
2024-04-25T19:20:15.942Z,60.30
2024-04-25T19:22:43.905Z,60.50
2024-04-25T19:25:10.824Z,60.70
2024-04-25T19:27:37.834Z,60.50
2024-04-25T19:30:05.115Z,60.40
2024-04-25T19:32:32.949Z,60.40
2024-04-25T19:34:59.995Z,60.10
2024-04-25T19:37:26.895Z,60.00
2024-04-25T19:39:56.372Z,60.20
2024-04-25T19:42:23.181Z,60.30
2024-04-25T19:44:50.127Z,60.50
2024-04-25T19:47:17.214Z,60.40
2024-04-25T19:49:44.117Z,60.50
2024-04-25T19:52:11.461Z,60.40
2024-04-25T19:54:38.318Z,60.30
2024-04-25T19:57:05.328Z,60.30
2024-04-25T19:59:35.356Z,60.20
2024-04-25T20:02:02.584Z,60.30
2024-04-25T20:04:30.912Z,60.40
2024-04-25T20:06:57.901Z,60.70
2024-04-25T20:09:24.713Z,60.90
2024-04-25T20:11:51.634Z,60.90
2024-04-25T20:14:18.735Z,60.80
2024-04-25T20:16:46.250Z,60.80
2024-04-25T20:19:32.012Z,60.80
2024-04-25T20:21:58.960Z,61.10
2024-04-25T20:24:26.883Z,61.10
2024-04-25T20:26:56.423Z,61.10
2024-04-25T20:29:24.408Z,61.10
2024-04-25T20:31:52.909Z,61.10
2024-04-25T20:34:20.579Z,61.00
2024-04-25T20:36:47.528Z,61.00
2024-04-25T20:39:14.312Z,61.10
2024-04-25T20:41:43.080Z,61.10
2024-04-25T20:44:10.132Z,61.40
2024-04-25T20:46:37.295Z,61.40
2024-04-25T20:49:04.223Z,61.30
2024-04-25T20:51:31.854Z,61.40
2024-04-25T20:54:01.548Z,61.50
2024-04-25T20:56:28.604Z,61.50
2024-04-25T20:58:55.758Z,61.70
2024-04-25T21:01:23.711Z,61.70
2024-04-25T21:03:50.652Z,61.50
2024-04-25T21:06:17.581Z,61.40
2024-04-25T21:08:44.553Z,61.40
2024-04-25T21:11:11.510Z,61.20
2024-04-25T21:13:38.378Z,61.30
2024-04-25T21:16:05.492Z,61.30
2024-04-25T21:18:32.794Z,61.20
2024-04-25T21:21:03.138Z,61.40
2024-04-25T21:23:30.917Z,61.50
2024-04-25T21:26:01.432Z,61.60
2024-04-25T21:28:29.238Z,61.80
2024-04-25T21:30:56.093Z,61.70
2024-04-25T21:33:25.302Z,61.80
2024-04-25T21:35:53.353Z,61.90
2024-04-25T21:38:20.546Z,61.90
2024-04-25T21:40:47.495Z,61.90
2024-04-25T21:43:14.372Z,62.10
2024-04-25T21:45:41.339Z,62.00
2024-04-25T21:48:08.872Z,62.20
2024-04-25T21:50:36.294Z,62.20
2024-04-25T21:53:03.129Z,62.30
2024-04-25T21:55:30.030Z,62.40
2024-04-25T21:57:59.136Z,62.50
2024-04-25T22:00:28.022Z,62.60
2024-04-25T22:02:56.909Z,62.50
2024-04-25T22:05:23.976Z,62.50
2024-04-25T22:07:50.789Z,62.30
2024-04-25T22:10:17.727Z,62.30
2024-04-25T22:12:44.582Z,62.30
2024-04-25T22:15:12.432Z,62.30
2024-04-25T22:17:39.306Z,62.40
2024-04-25T22:20:06.817Z,62.40
2024-04-25T22:22:34.127Z,62.60
2024-04-25T22:25:01.001Z,62.80
2024-04-25T22:27:27.788Z,62.70
2024-04-25T22:29:54.708Z,62.90
2024-04-25T22:32:24.100Z,63.00
2024-04-25T22:34:51.854Z,63.10
2024-04-25T22:37:18.724Z,63.00
2024-04-25T22:39:46.647Z,63.00
2024-04-25T22:42:13.583Z,63.00
2024-04-25T22:44:40.610Z,63.20
2024-04-25T22:47:07.737Z,63.00
2024-04-25T22:49:34.546Z,63.00
2024-04-25T22:52:01.411Z,62.90
2024-04-25T22:54:29.351Z,62.80
2024-04-25T22:56:56.280Z,63.00
2024-04-25T22:59:23.122Z,62.90
2024-04-25T23:01:50.155Z,63.00
2024-04-25T23:04:17.108Z,63.10
2024-04-25T23:06:44.181Z,63.00
2024-04-25T23:09:12.119Z,63.00
2024-04-25T23:11:39.166Z,63.10
2024-04-25T23:14:07.621Z,63.00
2024-04-25T23:16:34.617Z,63.00
2024-04-25T23:19:01.503Z,63.10
2024-04-25T23:33:19.225Z,62.80
2024-04-25T23:35:46.186Z,62.70
2024-04-25T23:38:13.167Z,62.70
2024-04-25T23:40:40.300Z,62.80
2024-04-25T23:43:07.224Z,62.70
2024-04-25T23:45:34.059Z,62.80
2024-04-25T23:48:01.159Z,62.90
2024-04-25T23:50:28.094Z,63.00
2024-04-25T23:52:54.978Z,63.20
2024-04-25T23:55:22.861Z,63.10
2024-04-25T23:57:49.658Z,63.30
